Time;durP1;ratioP1;P1;durP2;ratioP2;P2;SDS_P1;SDS_P2;PMS_P1;PMS_P2;Temp;Humidity;BMP_temperature;BMP_pressure;BME280_temperature;BME280_humidity;BME280_pressure;Samples;Min_cycle;Max_cycle;Signal;HPM_P1;HPM_P2
2022/03/26 00:00:16;;;;;;;;;57.50;46.00;;;;;;;;4927990;28;11702;-76
2022/03/26 00:02:44;;;;;;;;;46.00;39.75;;;;;;;;4925854;29;11674;-76
2022/03/26 00:05:11;;;;;;;;;48.25;40.00;;;;;;;;4937123;28;11758;-76
2022/03/26 00:07:39;;;;;;;;;62.00;48.00;;;;;;;;4940975;28;11665;-76
2022/03/26 00:10:07;;;;;;;;;58.00;47.75;;;;;;;;4939295;28;11654;-77
2022/03/26 00:12:34;;;;;;;;;57.25;43.50;;;;;;;;4953680;28;12432;-76
2022/03/26 00:15:02;;;;;;;;;57.50;44.25;;;;;;;;4934868;28;11698;-77
2022/03/26 00:17:31;;;;;;;;;51.50;43.25;;;;;;;;4941028;28;11667;-76
2022/03/26 00:19:59;;;;;;;;;50.00;44.50;;;;;;;;4934234;28;11649;-76
2022/03/26 00:22:26;;;;;;;;;55.50;43.50;;;;;;;;4959674;28;11680;-76
2022/03/26 00:24:54;;;;;;;;;58.00;44.25;;;;;;;;4960369;28;11659;-76
2022/03/26 00:27:21;;;;;;;;;45.75;39.50;;;;;;;;4983004;28;11697;-76
2022/03/26 00:29:50;;;;;;;;;55.00;44.00;;;;;;;;4988430;28;11654;-77
2022/03/26 00:32:17;;;;;;;;;53.75;45.00;;;;;;;;4945921;28;11696;-78
2022/03/26 00:34:47;;;;;;;;;62.25;48.50;;;;;;;;4942645;28;11671;-77
2022/03/26 00:37:14;;;;;;;;;53.50;44.25;;;;;;;;4955748;28;11664;-78
2022/03/26 00:39:42;;;;;;;;;56.00;46.00;;;;;;;;4938574;28;11678;-76
2022/03/26 00:42:10;;;;;;;;;54.25;43.25;;;;;;;;4953814;28;12497;-78
2022/03/26 00:44:37;;;;;;;;;55.75;45.00;;;;;;;;4969277;28;11680;-76
2022/03/26 00:47:06;;;;;;;;;49.25;42.75;;;;;;;;4981267;28;11824;-77
2022/03/26 00:49:33;;;;;;;;;51.25;41.00;;;;;;;;4946562;28;11730;-78
2022/03/26 00:52:05;;;;;;;;;60.25;45.75;;;;;;;;4941632;28;11652;-77
2022/03/26 00:54:33;;;;;;;;;58.00;41.50;;;;;;;;4952170;28;11664;-75
2022/03/26 00:57:02;;;;;;;;;40.50;39.00;;;;;;;;4990421;28;11683;-77
2022/03/26 00:59:29;;;;;;;;;58.50;46.25;;;;;;;;4963711;28;11649;-77
2022/03/26 01:01:58;;;;;;;;;52.00;42.75;;;;;;;;4987604;28;11632;-76
2022/03/26 01:04:25;;;;;;;;;61.25;46.50;;;;;;;;4964077;28;11654;-76
2022/03/26 01:06:52;;;;;;;;;53.00;45.50;;;;;;;;4997782;28;11727;-77
2022/03/26 01:09:21;;;;;;;;;58.50;43.00;;;;;;;;4979572;28;11637;-77
2022/03/26 01:11:48;;;;;;;;;48.50;41.50;;;;;;;;4991397;28;11700;-77
2022/03/26 01:14:16;;;;;;;;;58.75;50.75;;;;;;;;4988876;28;12432;-77
2022/03/26 01:16:43;;;;;;;;;62.50;48.50;;;;;;;;4981611;28;11680;-76
2022/03/26 01:19:11;;;;;;;;;60.50;46.50;;;;;;;;4990359;28;12401;-76
2022/03/26 01:21:39;;;;;;;;;59.75;47.00;;;;;;;;4957847;28;11680;-76
2022/03/26 01:24:06;;;;;;;;;68.00;53.00;;;;;;;;4925517;28;11674;-78
2022/03/26 01:26:36;;;;;;;;;63.67;49.33;;;;;;;;4949429;28;11689;-77
2022/03/26 01:29:04;;;;;;;;;64.50;50.50;;;;;;;;4981050;28;11751;-77
2022/03/26 01:31:32;;;;;;;;;65.00;51.67;;;;;;;;5030159;28;12242;-76
2022/03/26 01:34:00;;;;;;;;;71.33;54.67;;;;;;;;5023932;28;11576;-75
2022/03/26 01:36:28;;;;;;;;;52.00;44.33;;;;;;;;5029319;28;11554;-79
2022/03/26 01:38:56;;;;;;;;;60.33;50.00;;;;;;;;5021531;28;11549;-77
2022/03/26 01:41:24;;;;;;;;;62.33;48.00;;;;;;;;5007187;28;11538;-76
2022/03/26 01:43:53;;;;;;;;;67.33;51.67;;;;;;;;5006169;28;11538;-77
2022/03/26 01:46:20;;;;;;;;;56.00;48.67;;;;;;;;5030428;28;11568;-76
2022/03/26 01:48:48;;;;;;;;;49.67;42.00;;;;;;;;5021372;28;11534;-77
2022/03/26 01:51:16;;;;;;;;;63.00;52.33;;;;;;;;5024938;28;11553;-75
2022/03/26 01:53:45;;;;;;;;;63.67;51.33;;;;;;;;5023935;28;8889;-78
2022/03/26 01:56:13;;;;;;;;;67.67;52.33;;;;;;;;5018746;28;12609;-78
2022/03/26 01:58:41;;;;;;;;;62.67;47.33;;;;;;;;5027319;28;11553;-78
2022/03/26 02:01:10;;;;;;;;;65.00;50.00;;;;;;;;5018370;28;11451;-77
2022/03/26 02:03:37;;;;;;;;;61.33;47.00;;;;;;;;5009584;28;11542;-76
2022/03/26 02:06:05;;;;;;;;;52.33;45.00;;;;;;;;5021373;28;11551;-77
2022/03/26 02:08:32;;;;;;;;;55.00;48.00;;;;;;;;5023811;28;11506;-76
2022/03/26 02:11:01;;;;;;;;;66.33;51.00;;;;;;;;5021318;28;11543;-76
2022/03/26 02:13:49;;;;;;;;;52.33;45.33;;;;;;;;5028111;28;11540;-76
2022/03/26 02:16:18;;;;;;;;;52.67;43.33;;;;;;;;5024073;28;8892;-76
2022/03/26 02:18:45;;;;;;;;;51.33;44.67;;;;;;;;5024607;28;11649;-76
2022/03/26 02:21:14;;;;;;;;;63.00;47.00;;;;;;;;5023217;28;8862;-76
2022/03/26 02:23:42;;;;;;;;;58.00;48.67;;;;;;;;5001351;28;11652;-76
2022/03/26 02:26:09;;;;;;;;;54.67;47.33;;;;;;;;5023482;28;8838;-77
2022/03/26 02:28:37;;;;;;;;;60.00;51.33;;;;;;;;5021842;28;11654;-77
2022/03/26 02:31:05;;;;;;;;;57.00;48.67;;;;;;;;5008212;28;8798;-76
2022/03/26 02:33:32;;;;;;;;;54.00;44.00;;;;;;;;5006300;28;12332;-77
2022/03/26 02:35:59;;;;;;;;;60.33;44.00;;;;;;;;5020834;28;9677;-78
2022/03/26 02:38:28;;;;;;;;;49.67;45.00;;;;;;;;5026454;28;11570;-78
2022/03/26 02:40:55;;;;;;;;;59.33;46.67;;;;;;;;5024591;28;8856;-78
2022/03/26 02:43:23;;;;;;;;;64.00;51.67;;;;;;;;5026177;28;9632;-76
2022/03/26 02:45:50;;;;;;;;;62.33;48.00;;;;;;;;5022888;28;8886;-77
2022/03/26 02:48:17;;;;;;;;;48.67;44.67;;;;;;;;5006702;28;9542;-75
2022/03/26 02:50:46;;;;;;;;;64.00;50.33;;;;;;;;5022706;28;11717;-76
2022/03/26 02:53:13;;;;;;;;;62.33;51.00;;;;;;;;5020899;28;8861;-76
2022/03/26 02:55:43;;;;;;;;;59.67;48.33;;;;;;;;5020898;28;8982;-77
2022/03/26 02:58:10;;;;;;;;;56.00;43.67;;;;;;;;5025597;28;8988;-75
2022/03/26 03:00:39;;;;;;;;;57.00;44.67;;;;;;;;5027183;28;9165;-76
2022/03/26 03:03:08;;;;;;;;;57.33;43.33;;;;;;;;5025871;28;8853;-76
2022/03/26 03:05:35;;;;;;;;;64.33;48.00;;;;;;;;5021208;28;9604;-75
2022/03/26 03:08:03;;;;;;;;;68.33;51.33;;;;;;;;5002753;28;8860;-76
2022/03/26 03:10:31;;;;;;;;;59.00;47.00;;;;;;;;5029562;28;8871;-76
2022/03/26 03:13:00;;;;;;;;;66.00;52.00;;;;;;;;5023770;28;10037;-77
2022/03/26 03:15:28;;;;;;;;;63.00;51.67;;;;;;;;5008300;28;8869;-77
2022/03/26 03:17:55;;;;;;;;;41.67;39.33;;;;;;;;4988099;28;8862;-75
2022/03/26 03:20:23;;;;;;;;;65.33;52.00;;;;;;;;5006151;28;8858;-78
2022/03/26 03:22:50;;;;;;;;;63.00;50.00;;;;;;;;5023415;28;8932;-78
2022/03/26 03:25:18;;;;;;;;;66.33;51.67;;;;;;;;5020354;28;8866;-76
2022/03/26 03:27:45;;;;;;;;;60.67;46.00;;;;;;;;5019536;28;8858;-77
2022/03/26 03:30:14;;;;;;;;;70.33;53.67;;;;;;;;5024228;28;8905;-77
2022/03/26 03:32:42;;;;;;;;;66.33;52.33;;;;;;;;5008451;28;8868;-77
2022/03/26 03:35:10;;;;;;;;;65.67;51.33;;;;;;;;5027927;28;8967;-78
2022/03/26 03:37:38;;;;;;;;;73.00;56.33;;;;;;;;5021139;28;8929;-78
2022/03/26 03:40:08;;;;;;;;;61.00;47.33;;;;;;;;5004717;28;8854;-77
2022/03/26 03:42:36;;;;;;;;;67.00;53.33;;;;;;;;5024224;28;8854;-78
2022/03/26 03:45:05;;;;;;;;;48.33;43.67;;;;;;;;5025186;28;8911;-77
2022/03/26 03:47:34;;;;;;;;;69.00;56.33;;;;;;;;5021726;28;8850;-78
2022/03/26 03:50:01;;;;;;;;;62.33;52.00;;;;;;;;5025595;28;8870;-77
2022/03/26 03:52:28;;;;;;;;;66.67;53.33;;;;;;;;5022655;28;8933;-77
2022/03/26 03:54:56;;;;;;;;;68.67;49.67;;;;;;;;5020110;28;8947;-77
2022/03/26 03:57:23;;;;;;;;;56.67;45.00;;;;;;;;5025986;28;8888;-77
2022/03/26 03:59:50;;;;;;;;;64.67;52.67;;;;;;;;5019620;28;8874;-77
2022/03/26 04:02:17;;;;;;;;;68.00;50.33;;;;;;;;5022877;28;8835;-76
2022/03/26 04:04:46;;;;;;;;;67.00;52.33;;;;;;;;5025341;28;8863;-77
2022/03/26 04:07:14;;;;;;;;;66.00;52.33;;;;;;;;5023167;28;8858;-76
2022/03/26 04:09:41;;;;;;;;;66.67;53.00;;;;;;;;5022447;28;8864;-77
2022/03/26 04:12:09;;;;;;;;;66.33;51.67;;;;;;;;5026507;28;8860;-77
2022/03/26 04:14:43;;;;;;;;;62.33;51.00;;;;;;;;5022905;28;8857;-76
2022/03/26 04:17:10;;;;;;;;;68.00;52.33;;;;;;;;5021730;28;8947;-77
2022/03/26 04:19:38;;;;;;;;;53.33;45.67;;;;;;;;5030722;28;8886;-77
2022/03/26 04:22:08;;;;;;;;;65.67;48.00;;;;;;;;5029224;28;8862;-77
2022/03/26 04:24:36;;;;;;;;;63.00;50.00;;;;;;;;5026552;28;8866;-77
2022/03/26 04:27:03;;;;;;;;;54.00;45.33;;;;;;;;5020819;28;8872;-78
2022/03/26 04:29:31;;;;;;;;;59.33;49.67;;;;;;;;5030112;28;8852;-77
2022/03/26 04:31:58;;;;;;;;;58.67;46.33;;;;;;;;5023522;28;8823;-77
2022/03/26 04:34:26;;;;;;;;;47.33;41.00;;;;;;;;5023673;28;8901;-77
2022/03/26 04:36:53;;;;;;;;;59.33;50.00;;;;;;;;5027681;28;8900;-76
2022/03/26 04:39:22;;;;;;;;;68.67;50.33;;;;;;;;5029443;28;8952;-76
2022/03/26 04:41:49;;;;;;;;;52.33;44.67;;;;;;;;5029860;28;9600;-76
2022/03/26 04:44:18;;;;;;;;;49.33;43.00;;;;;;;;5028538;28;8886;-76
2022/03/26 04:46:45;;;;;;;;;57.00;44.33;;;;;;;;5021759;28;9633;-77
2022/03/26 04:49:12;;;;;;;;;54.67;43.33;;;;;;;;5006988;28;8876;-78
2022/03/26 04:51:40;;;;;;;;;57.33;49.33;;;;;;;;5024207;28;8862;-78
2022/03/26 04:54:07;;;;;;;;;50.00;44.00;;;;;;;;5025850;28;8870;-79
2022/03/26 04:56:36;;;;;;;;;50.67;45.00;;;;;;;;5016931;28;8880;-79
2022/03/26 04:59:03;;;;;;;;;52.67;44.33;;;;;;;;5028610;28;8870;-77
2022/03/26 05:01:31;;;;;;;;;51.00;42.33;;;;;;;;5023577;28;8818;-75
2022/03/26 05:03:58;;;;;;;;;49.33;43.00;;;;;;;;5025003;28;8893;-75
2022/03/26 05:06:26;;;;;;;;;47.33;42.33;;;;;;;;5005686;28;8870;-75
2022/03/26 05:08:53;;;;;;;;;49.00;44.33;;;;;;;;5026027;28;8870;-75
2022/03/26 05:11:20;;;;;;;;;60.67;48.67;;;;;;;;5026922;28;8838;-77
2022/03/26 05:13:49;;;;;;;;;48.00;42.00;;;;;;;;5023125;28;8981;-77
2022/03/26 05:16:16;;;;;;;;;62.33;50.00;;;;;;;;5028886;28;8896;-76
2022/03/26 05:18:44;;;;;;;;;69.00;51.33;;;;;;;;5031735;28;8865;-78
2022/03/26 05:21:11;;;;;;;;;60.67;44.67;;;;;;;;5025943;28;8874;-77
2022/03/26 05:23:38;;;;;;;;;56.00;43.67;;;;;;;;5023961;28;8857;-76
2022/03/26 05:26:05;;;;;;;;;67.33;56.33;;;;;;;;5026284;28;8896;-77
2022/03/26 05:28:33;;;;;;;;;81.67;63.00;;;;;;;;5027449;28;8861;-77
2022/03/26 05:31:02;;;;;;;;;91.33;67.33;;;;;;;;5026974;28;8799;-77
2022/03/26 05:33:29;;;;;;;;;79.00;62.33;;;;;;;;5028485;28;8870;-77
2022/03/26 05:35:57;;;;;;;;;86.00;66.00;;;;;;;;5024866;28;8906;-78
2022/03/26 05:38:24;;;;;;;;;91.33;69.33;;;;;;;;5027456;28;8866;-76
2022/03/26 05:40:51;;;;;;;;;79.67;65.33;;;;;;;;5024279;28;9594;-74
2022/03/26 05:43:18;;;;;;;;;91.75;69.75;;;;;;;;5029791;28;8997;-76
2022/03/26 05:45:46;;;;;;;;;97.50;81.50;;;;;;;;5029821;28;8870;-77
2022/03/26 05:48:15;;;;;;;;;92.25;72.25;;;;;;;;5021867;28;8846;-78
2022/03/26 05:50:42;;;;;;;;;92.00;69.50;;;;;;;;5027721;28;8885;-76
2022/03/26 05:53:09;;;;;;;;;86.50;68.75;;;;;;;;5006696;28;9878;-75
2022/03/26 05:55:37;;;;;;;;;94.25;74.50;;;;;;;;5025888;28;8886;-75
2022/03/26 05:58:05;;;;;;;;;93.75;74.50;;;;;;;;5015599;28;8891;-77
2022/03/26 06:00:32;;;;;;;;;88.00;69.00;;;;;;;;5026274;28;8853;-75
2022/03/26 06:02:59;;;;;;;;;91.50;71.25;;;;;;;;5026458;28;8854;-76
2022/03/26 06:05:28;;;;;;;;;91.67;72.00;;;;;;;;5024374;28;8990;-77
2022/03/26 06:07:56;;;;;;;;;91.75;74.50;;;;;;;;5020559;28;8906;-76
2022/03/26 06:10:24;;;;;;;;;88.33;69.00;;;;;;;;5027932;28;8868;-76
2022/03/26 06:12:51;;;;;;;;;84.67;65.00;;;;;;;;5020179;28;9627;-77
2022/03/26 06:15:19;;;;;;;;;70.67;58.33;;;;;;;;5028594;28;8932;-77
2022/03/26 06:17:47;;;;;;;;;74.00;56.00;;;;;;;;5025664;28;8885;-77
2022/03/26 06:20:14;;;;;;;;;80.00;59.00;;;;;;;;5032227;28;8834;-76
2022/03/26 06:22:44;;;;;;;;;75.33;59.67;;;;;;;;5022062;28;8994;-75
2022/03/26 06:25:11;;;;;;;;;76.00;59.00;;;;;;;;5033621;28;8929;-75
2022/03/26 06:27:38;;;;;;;;;65.67;53.67;;;;;;;;5021498;28;8854;-78
2022/03/26 06:30:07;;;;;;;;;72.33;56.67;;;;;;;;5022180;28;8916;-75
2022/03/26 06:32:35;;;;;;;;;66.67;48.67;;;;;;;;5019927;28;8866;-74
2022/03/26 06:35:02;;;;;;;;;71.67;55.00;;;;;;;;5023302;28;8906;-76
2022/03/26 06:37:30;;;;;;;;;71.00;58.00;;;;;;;;5023018;28;8876;-75
2022/03/26 06:39:59;;;;;;;;;58.67;45.33;;;;;;;;5023014;28;8921;-76
2022/03/26 06:42:27;;;;;;;;;64.00;51.00;;;;;;;;5003080;28;11528;-77
2022/03/26 06:44:59;;;;;;;;;69.67;53.67;;;;;;;;5021935;28;11653;-77
2022/03/26 06:47:26;;;;;;;;;69.00;51.67;;;;;;;;5023221;28;11532;-79
2022/03/26 06:49:54;;;;;;;;;66.33;54.33;;;;;;;;5021899;28;11529;-83
2022/03/26 06:52:23;;;;;;;;;50.75;45.00;;;;;;;;5022920;28;11589;-83
2022/03/26 06:54:51;;;;;;;;;58.50;47.50;;;;;;;;5023534;28;11527;-80
2022/03/26 06:57:20;;;;;;;;;63.00;50.25;;;;;;;;5024048;28;11507;-79
2022/03/26 06:59:48;;;;;;;;;67.75;53.00;;;;;;;;5024220;28;12323;-79
2022/03/26 07:02:15;;;;;;;;;60.50;51.75;;;;;;;;5022116;28;11461;-84
2022/03/26 07:04:42;;;;;;;;;63.25;50.00;;;;;;;;5006216;28;11596;-78
2022/03/26 07:07:14;;;;;;;;;56.75;49.50;;;;;;;;5021832;28;12578;-81
2022/03/26 07:09:41;;;;;;;;;63.25;51.50;;;;;;;;5023945;28;11635;-81
2022/03/26 07:12:10;;;;;;;;;65.75;52.25;;;;;;;;5023440;28;11534;-84
2022/03/26 07:14:39;;;;;;;;;54.25;45.50;;;;;;;;5023228;28;11552;-82
2022/03/26 07:17:07;;;;;;;;;59.50;47.50;;;;;;;;5005599;28;11527;-78
2022/03/26 07:19:34;;;;;;;;;65.25;48.75;;;;;;;;5024171;28;11532;-81
2022/03/26 07:22:02;;;;;;;;;63.00;51.25;;;;;;;;5005338;28;11517;-80
2022/03/26 07:24:29;;;;;;;;;60.25;51.00;;;;;;;;5018689;28;11781;-79
2022/03/26 07:26:57;;;;;;;;;58.75;45.75;;;;;;;;5022578;28;11533;-81
2022/03/26 07:29:24;;;;;;;;;60.00;47.25;;;;;;;;5022028;28;11544;-80
2022/03/26 07:31:54;;;;;;;;;71.50;54.50;;;;;;;;5022601;28;11474;-83
2022/03/26 07:34:22;;;;;;;;;61.25;47.75;;;;;;;;5022530;28;11535;-80
2022/03/26 07:36:50;;;;;;;;;52.50;43.25;;;;;;;;5022479;28;11542;-79
2022/03/26 07:39:17;;;;;;;;;60.00;48.75;;;;;;;;5023226;28;11529;-79
2022/03/26 07:41:44;;;;;;;;;62.25;49.25;;;;;;;;5018261;28;11543;-85
2022/03/26 07:44:12;;;;;;;;;61.75;45.00;;;;;;;;5023171;28;11617;-80
2022/03/26 07:46:39;;;;;;;;;59.25;47.75;;;;;;;;5021684;28;11539;-78
2022/03/26 07:49:08;;;;;;;;;56.75;48.00;;;;;;;;5021582;28;11540;-73
2022/03/26 07:51:35;;;;;;;;;61.25;44.75;;;;;;;;5013239;28;11522;-75
2022/03/26 07:54:02;;;;;;;;;64.50;50.25;;;;;;;;5019520;28;11558;-75
2022/03/26 07:56:30;;;;;;;;;61.00;47.50;;;;;;;;5017393;28;11574;-73
2022/03/26 07:58:59;;;;;;;;;57.25;44.00;;;;;;;;5014358;28;11568;-74
2022/03/26 08:01:27;;;;;;;;;49.25;40.50;;;;;;;;5020121;28;11465;-75
2022/03/26 08:03:54;;;;;;;;;57.00;46.25;;;;;;;;4999349;28;11544;-74
2022/03/26 08:06:24;;;;;;;;;56.75;47.50;;;;;;;;5019879;28;11509;-76
2022/03/26 08:08:51;;;;;;;;;57.00;41.50;;;;;;;;5020714;28;11603;-77
2022/03/26 08:11:19;;;;;;;;;53.00;44.25;;;;;;;;5019930;28;11560;-78
2022/03/26 08:13:46;;;;;;;;;53.75;43.25;;;;;;;;4998694;28;11485;-80
2022/03/26 08:16:14;;;;;;;;;51.00;40.75;;;;;;;;5017357;28;12601;-78
2022/03/26 08:18:41;;;;;;;;;56.50;45.50;;;;;;;;5017925;28;11506;-78
2022/03/26 08:21:10;;;;;;;;;50.75;41.50;;;;;;;;5015936;28;12467;-77
2022/03/26 08:23:38;;;;;;;;;54.00;44.25;;;;;;;;5019081;28;11611;-77
2022/03/26 08:26:22;;;;;;;;;55.50;43.00;;;;;;;;5018296;28;11506;-76
2022/03/26 08:28:50;;;;;;;;;54.75;42.50;;;;;;;;5016293;28;11544;-80
2022/03/26 08:31:18;;;;;;;;;51.50;41.00;;;;;;;;5017341;28;11425;-79
2022/03/26 08:33:48;;;;;;;;;49.25;39.00;;;;;;;;5022716;28;11476;-80
2022/03/26 08:36:17;;;;;;;;;48.50;42.00;;;;;;;;5022512;28;11442;-76
2022/03/26 08:38:46;;;;;;;;;50.50;41.50;;;;;;;;5020686;28;11468;-79
2022/03/26 08:41:14;;;;;;;;;51.50;44.00;;;;;;;;5022874;28;11480;-80
2022/03/26 08:43:42;;;;;;;;;57.75;47.75;;;;;;;;5020643;28;11464;-80
2022/03/26 08:46:09;;;;;;;;;39.00;37.75;;;;;;;;5021989;28;11555;-79
2022/03/26 08:48:36;;;;;;;;;54.75;43.50;;;;;;;;5019888;28;11215;-79
2022/03/26 08:51:04;;;;;;;;;50.50;40.50;;;;;;;;5001421;28;11837;-82
2022/03/26 08:53:31;;;;;;;;;55.00;42.50;;;;;;;;5021747;28;11120;-81
2022/03/26 08:56:00;;;;;;;;;49.75;41.00;;;;;;;;5020675;28;11283;-82
2022/03/26 08:58:29;;;;;;;;;45.00;38.50;;;;;;;;5022491;28;10970;-80
2022/03/26 09:00:56;;;;;;;;;51.50;41.00;;;;;;;;5020485;28;10693;-80
2022/03/26 09:03:24;;;;;;;;;42.00;36.50;;;;;;;;5022331;28;11055;-84
2022/03/26 09:05:52;;;;;;;;;42.00;35.25;;;;;;;;5023658;28;10933;-80
2022/03/26 09:08:20;;;;;;;;;52.50;41.75;;;;;;;;5026047;28;10638;-80
2022/03/26 09:10:47;;;;;;;;;50.00;41.00;;;;;;;;5005427;28;10680;-80
2022/03/26 09:13:18;;;;;;;;;48.50;41.50;;;;;;;;5022033;28;11302;-80
2022/03/26 09:15:45;;;;;;;;;38.75;33.75;;;;;;;;5024844;28;10493;-80
2022/03/26 09:18:13;;;;;;;;;46.00;40.50;;;;;;;;5023621;28;10372;-80
2022/03/26 09:20:41;;;;;;;;;52.50;43.25;;;;;;;;5025117;28;10379;-80
2022/03/26 09:23:08;;;;;;;;;42.50;37.00;;;;;;;;5016487;28;10344;-79
2022/03/26 09:25:36;;;;;;;;;47.50;39.25;;;;;;;;5024157;28;10085;-79
2022/03/26 09:28:07;;;;;;;;;46.00;36.50;;;;;;;;5023002;28;10145;-80
2022/03/26 09:30:37;;;;;;;;;48.00;39.75;;;;;;;;5023712;28;9987;-77
2022/03/26 09:33:06;;;;;;;;;50.25;40.75;;;;;;;;5024521;28;10141;-79
2022/03/26 09:35:33;;;;;;;;;44.00;35.25;;;;;;;;5024380;28;10683;-81
2022/03/26 09:38:03;;;;;;;;;33.25;31.50;;;;;;;;5025934;28;10778;-81
2022/03/26 09:40:31;;;;;;;;;50.75;41.00;;;;;;;;5021792;28;9750;-78
2022/03/26 09:42:59;;;;;;;;;43.50;37.75;;;;;;;;5025069;28;9635;-80
2022/03/26 09:45:26;;;;;;;;;49.75;40.75;;;;;;;;5023973;28;9597;-79
2022/03/26 09:47:55;;;;;;;;;50.00;40.33;;;;;;;;5025396;28;9528;-79
2022/03/26 09:50:23;;;;;;;;;43.67;38.33;;;;;;;;5023683;28;9413;-79
2022/03/26 09:52:51;;;;;;;;;50.00;40.33;;;;;;;;5005819;28;9264;-79
2022/03/26 09:55:21;;;;;;;;;42.00;35.33;;;;;;;;5023737;28;9326;-80
2022/03/26 09:57:49;;;;;;;;;43.33;38.33;;;;;;;;5009080;28;9082;-79
2022/03/26 10:00:17;;;;;;;;;46.33;38.67;;;;;;;;5031927;28;10117;-80
2022/03/26 10:02:45;;;;;;;;;44.00;38.67;;;;;;;;5031263;28;9090;-79
2022/03/26 10:05:18;;;;;;;;;47.33;41.00;;;;;;;;5033072;28;9866;-79
2022/03/26 10:07:49;;;;;;;;;54.33;43.00;;;;;;;;5029884;28;9183;-79
2022/03/26 10:10:24;;;;;;;;;51.00;41.33;;;;;;;;5035388;28;9188;-79
2022/03/26 10:12:53;;;;;;;;;50.67;40.33;;;;;;;;5020005;28;9451;-81
2022/03/26 10:15:24;;;;;;;;;46.00;38.33;;;;;;;;5022750;28;9114;-81
2022/03/26 10:17:53;;;;;;;;;50.33;41.00;;;;;;;;5025742;28;9024;-80
2022/03/26 10:20:22;;;;;;;;;52.33;40.33;;;;;;;;5023267;28;8962;-80
2022/03/26 10:22:50;;;;;;;;;46.25;39.25;;;;;;;;5006895;28;9045;-81
2022/03/26 10:25:20;;;;;;;;;44.00;36.33;;;;;;;;5023957;28;8850;-80
2022/03/26 10:27:49;;;;;;;;;41.25;35.00;;;;;;;;5021724;28;8968;-81
2022/03/26 10:32:38;;;;;;;;;42.00;35.75;;;;;;;;5022397;28;8892;-81
2022/03/26 10:33:18;;;;;;;;;46.00;39.25;;;;;;;;5022208;28;8850;-81
2022/03/26 10:35:53;;;;;;;;;39.50;36.25;;;;;;;;5021008;28;8973;-81
2022/03/26 10:38:21;;;;;;;;;43.75;37.50;;;;;;;;5022848;28;8862;-81
2022/03/26 10:40:48;;;;;;;;;43.00;35.00;;;;;;;;5024482;28;8900;-81
2022/03/26 10:43:15;;;;;;;;;35.50;32.75;;;;;;;;5023303;28;8901;-82
2022/03/26 10:45:48;;;;;;;;;43.00;33.25;;;;;;;;5022050;28;8886;-82
2022/03/26 10:48:16;;;;;;;;;41.75;34.25;;;;;;;;5003867;28;8909;-81
2022/03/26 10:50:45;;;;;;;;;36.25;33.50;;;;;;;;5025504;28;8890;-81
2022/03/26 10:53:15;;;;;;;;;33.50;30.75;;;;;;;;5026997;28;8865;-81
2022/03/26 10:55:43;;;;;;;;;35.00;31.00;;;;;;;;5023419;28;8871;-82
2022/03/26 10:58:11;;;;;;;;;34.25;31.75;;;;;;;;5024633;28;8928;-82
2022/03/26 11:00:39;;;;;;;;;32.75;31.75;;;;;;;;5022190;28;8797;-82
2022/03/26 11:03:06;;;;;;;;;35.00;30.00;;;;;;;;5002533;28;8912;-82
2022/03/26 11:05:35;;;;;;;;;29.00;27.25;;;;;;;;5023006;28;8868;-82
2022/03/26 11:08:03;;;;;;;;;34.25;30.75;;;;;;;;5016789;28;8885;-82
2022/03/26 11:10:33;;;;;;;;;33.00;31.00;;;;;;;;5021459;28;9631;-82
2022/03/26 11:13:03;;;;;;;;;15.25;13.50;;;;;;;;5021853;28;8890;-80
2022/03/26 11:15:34;;;;;;;;;26.00;26.00;;;;;;;;5024346;28;8848;-79
2022/03/26 11:18:35;;;;;;;;;27.75;27.75;;;;;;;;5022098;28;9276;-84
2022/03/26 11:21:19;;;;;;;;;29.25;28.25;;;;;;;;5013320;28;8964;-80
2022/03/26 11:24:09;;;;;;;;;29.50;29.50;;;;;;;;5029101;28;8879;-82
2022/03/26 11:26:46;;;;;;;;;39.25;33.25;;;;;;;;5032788;28;9035;-78
2022/03/26 11:29:39;;;;;;;;;27.00;22.00;;;;;;;;5020940;28;8919;-81
2022/03/26 11:32:16;;;;;;;;;28.25;21.75;;;;;;;;5017699;28;8830;-77
2022/03/26 11:34:43;;;;;;;;;28.00;24.75;;;;;;;;5021104;28;9779;-77
2022/03/26 11:37:12;;;;;;;;;28.75;24.50;;;;;;;;5017997;28;8900;-78
2022/03/26 11:39:47;;;;;;;;;12.00;11.50;;;;;;;;5011176;28;8886;-81
2022/03/26 11:42:17;;;;;;;;;25.50;23.75;;;;;;;;5021697;28;9040;-78
2022/03/26 11:50:41;;;;;;;;;22.50;20.50;;;;;;;;5026650;28;8867;-77
2022/03/26 11:50:45;;;;;;;;;23.75;22.00;;;;;;;;5018725;28;8842;-77
2022/03/26 11:53:34;;;;;;;;;22.00;20.50;;;;;;;;5019660;28;8854;-77
2022/03/26 11:56:04;;;;;;;;;27.00;22.75;;;;;;;;5017471;28;9635;-77
2022/03/26 11:58:32;;;;;;;;;24.25;21.50;;;;;;;;5020179;28;8861;-77
2022/03/26 12:01:02;;;;;;;;;21.25;20.75;;;;;;;;5015300;28;8826;-74
2022/03/26 12:03:30;;;;;;;;;16.00;16.00;;;;;;;;5018854;28;8882;-74
2022/03/26 12:08:52;;;;;;;;;23.50;23.25;;;;;;;;5016388;28;8846;-79
2022/03/26 12:11:23;;;;;;;;;32.25;28.25;;;;;;;;5026167;28;8870;-82
2022/03/26 12:14:07;;;;;;;;;25.50;21.25;;;;;;;;5016368;28;8880;-78
2022/03/26 12:16:53;;;;;;;;;26.00;26.00;;;;;;;;5001714;28;8909;-80
2022/03/26 12:19:41;;;;;;;;;29.50;28.25;;;;;;;;5015942;28;8873;-76
2022/03/26 12:22:23;;;;;;;;;28.75;24.25;;;;;;;;5012205;28;8951;-76
2022/03/26 12:24:51;;;;;;;;;25.00;23.60;;;;;;;;5017987;28;8850;-76
2022/03/26 12:27:19;;;;;;;;;19.40;19.20;;;;;;;;5016497;28;8874;-77
2022/03/26 12:29:49;;;;;;;;;22.40;20.40;;;;;;;;4998804;28;8890;-77
2022/03/26 12:32:18;;;;;;;;;24.60;22.40;;;;;;;;4999759;28;9428;-77
2022/03/26 12:34:54;;;;;;;;;24.80;23.80;;;;;;;;5018765;28;8850;-76
2022/03/26 12:37:22;;;;;;;;;22.80;21.20;;;;;;;;5019179;28;8862;-77
2022/03/26 12:39:50;;;;;;;;;26.20;24.60;;;;;;;;5001702;28;9744;-75
2022/03/26 12:42:18;;;;;;;;;26.60;26.60;;;;;;;;5024480;28;8874;-75
2022/03/26 12:44:47;;;;;;;;;27.00;25.00;;;;;;;;5024203;28;8878;-77
2022/03/26 12:47:18;;;;;;;;;27.60;27.40;;;;;;;;5018457;28;8903;-77
2022/03/26 12:49:47;;;;;;;;;27.40;22.20;;;;;;;;5021700;28;8869;-77
2022/03/26 12:52:18;;;;;;;;;27.00;23.80;;;;;;;;5024566;28;9005;-73
2022/03/26 12:54:45;;;;;;;;;21.20;17.40;;;;;;;;5007213;28;8865;-76
2022/03/26 12:57:14;;;;;;;;;28.40;28.00;;;;;;;;5024103;28;8882;-75
2022/03/26 12:59:41;;;;;;;;;21.20;16.80;;;;;;;;5009381;28;8871;-75
2022/03/26 13:02:14;;;;;;;;;27.20;27.20;;;;;;;;5021299;28;8798;-77
2022/03/26 13:04:41;;;;;;;;;23.40;22.80;;;;;;;;5024754;28;8850;-76
2022/03/26 13:07:08;;;;;;;;;23.40;22.60;;;;;;;;5020173;28;8893;-75
2022/03/26 13:09:36;;;;;;;;;29.60;26.20;;;;;;;;5005964;28;8870;-75
2022/03/26 13:12:04;;;;;;;;;29.00;22.60;;;;;;;;5024829;28;8830;-75
2022/03/26 13:14:31;;;;;;;;;22.80;21.60;;;;;;;;5020021;28;8858;-75
2022/03/26 13:16:59;;;;;;;;;22.60;22.60;;;;;;;;5020203;28;8973;-75
2022/03/26 13:19:34;;;;;;;;;25.20;20.40;;;;;;;;5022418;28;8888;-75
2022/03/26 13:22:04;;;;;;;;;21.80;20.00;;;;;;;;5018367;28;8898;-74
2022/03/26 13:24:31;;;;;;;;;16.80;15.20;;;;;;;;5009966;28;8913;-73
2022/03/26 13:27:02;;;;;;;;;19.80;18.00;;;;;;;;5024830;28;8874;-73
2022/03/26 13:29:31;;;;;;;;;17.40;16.20;;;;;;;;5018995;28;8826;-76
2022/03/26 13:31:59;;;;;;;;;16.40;16.20;;;;;;;;5018015;28;8924;-75
2022/03/26 13:34:29;;;;;;;;;18.00;16.20;;;;;;;;5019897;28;8888;-76
2022/03/26 13:37:07;;;;;;;;;18.00;16.60;;;;;;;;5018438;28;8884;-76
2022/03/26 13:39:35;;;;;;;;;14.00;14.00;;;;;;;;5019748;28;8881;-77
2022/03/26 13:42:09;;;;;;;;;14.60;11.60;;;;;;;;5022987;28;8951;-75
2022/03/26 13:44:37;;;;;;;;;10.40;9.80;;;;;;;;5021902;28;8893;-77
2022/03/26 13:47:05;;;;;;;;;14.20;12.20;;;;;;;;5023507;28;8874;-78
2022/03/26 13:49:34;;;;;;;;;12.00;12.00;;;;;;;;5021200;28;10834;-77
2022/03/26 13:52:22;;;;;;;;;13.40;13.40;;;;;;;;5022510;28;8858;-76
2022/03/26 13:54:50;;;;;;;;;12.20;12.20;;;;;;;;5014411;28;8917;-75
2022/03/26 13:57:18;;;;;;;;;14.60;12.40;;;;;;;;5023593;28;8858;-74
2022/03/26 13:59:48;;;;;;;;;13.80;12.80;;;;;;;;5020971;28;8866;-77
2022/03/26 14:02:15;;;;;;;;;10.60;9.40;;;;;;;;5021974;28;8922;-80
2022/03/26 14:04:43;;;;;;;;;10.20;10.20;;;;;;;;5013652;28;8846;-81
2022/03/26 14:07:12;;;;;;;;;10.40;9.40;;;;;;;;5004367;28;8963;-82
2022/03/26 14:09:39;;;;;;;;;10.80;10.80;;;;;;;;5024104;28;8898;-76
2022/03/26 14:12:07;;;;;;;;;11.40;9.80;;;;;;;;5016666;28;8850;-78
2022/03/26 14:14:34;;;;;;;;;10.40;10.40;;;;;;;;5019779;28;8862;-82
2022/03/26 14:17:02;;;;;;;;;8.80;8.80;;;;;;;;4997054;28;9004;-81
2022/03/26 14:19:29;;;;;;;;;9.60;9.60;;;;;;;;5020508;28;8913;-78
2022/03/26 14:21:56;;;;;;;;;5.80;5.80;;;;;;;;4985177;28;8858;-78
2022/03/26 14:24:25;;;;;;;;;11.80;10.80;;;;;;;;5002257;28;8858;-77
2022/03/26 14:26:56;;;;;;;;;12.20;9.20;;;;;;;;5020942;28;8896;-78
2022/03/26 14:29:23;;;;;;;;;10.40;10.40;;;;;;;;5011855;28;8877;-81
2022/03/26 14:31:53;;;;;;;;;10.40;8.60;;;;;;;;5023359;28;8799;-82
2022/03/26 14:34:21;;;;;;;;;10.20;8.20;;;;;;;;5021485;28;8896;-81
2022/03/26 14:36:48;;;;;;;;;13.80;10.40;;;;;;;;5023880;28;8993;-81
2022/03/26 14:39:16;;;;;;;;;8.40;8.40;;;;;;;;5005284;28;8874;-82
2022/03/26 14:41:44;;;;;;;;;10.00;9.80;;;;;;;;5021838;28;8869;-79